sensor_id;sensor_type;location;lat;lon;timestamp;P1;durP1;ratioP1;P2;durP2;ratioP2
16115;SDS011;8162;47.104;15.432;2022-10-16T00:00:30;45.93;;;31.47;;
16115;SDS011;8162;47.104;15.432;2022-10-16T00:02:56;47.17;;;31.77;;
16115;SDS011;8162;47.104;15.432;2022-10-16T00:05:22;42.43;;;29.47;;
16115;SDS011;8162;47.104;15.432;2022-10-16T00:07:47;46.70;;;31.93;;
16115;SDS011;8162;47.104;15.432;2022-10-16T00:10:13;42.47;;;31.57;;
16115;SDS011;8162;47.104;15.432;2022-10-16T00:12:39;41.67;;;30.43;;
16115;SDS011;8162;47.104;15.432;2022-10-16T00:15:05;48.27;;;32.50;;
16115;SDS011;8162;47.104;15.432;2022-10-16T00:17:31;44.13;;;31.83;;
16115;SDS011;8162;47.104;15.432;2022-10-16T00:19:56;46.20;;;33.13;;
16115;SDS011;8162;47.104;15.432;2022-10-16T00:22:22;47.63;;;33.07;;
16115;SDS011;8162;47.104;15.432;2022-10-16T00:24:48;45.20;;;32.47;;
16115;SDS011;8162;47.104;15.432;2022-10-16T00:27:14;51.90;;;33.57;;
16115;SDS011;8162;47.104;15.432;2022-10-16T00:29:39;52.20;;;33.37;;
16115;SDS011;8162;47.104;15.432;2022-10-16T00:32:05;46.17;;;31.17;;
16115;SDS011;8162;47.104;15.432;2022-10-16T00:34:31;44.30;;;30.20;;
16115;SDS011;8162;47.104;15.432;2022-10-16T00:36:56;42.00;;;29.77;;
16115;SDS011;8162;47.104;15.432;2022-10-16T00:39:22;49.00;;;31.37;;
16115;SDS011;8162;47.104;15.432;2022-10-16T00:41:48;43.03;;;29.50;;
16115;SDS011;8162;47.104;15.432;2022-10-16T00:47:11;42.33;;;28.97;;
16115;SDS011;8162;47.104;15.432;2022-10-16T00:49:42;42.63;;;30.57;;
16115;SDS011;8162;47.104;15.432;2022-10-16T00:52:08;41.43;;;29.07;;
16115;SDS011;8162;47.104;15.432;2022-10-16T00:54:35;42.90;;;30.53;;
16115;SDS011;8162;47.104;15.432;2022-10-16T00:57:01;42.90;;;28.73;;
16115;SDS011;8162;47.104;15.432;2022-10-16T00:59:32;46.90;;;29.03;;
16115;SDS011;8162;47.104;15.432;2022-10-16T01:02:00;43.50;;;27.87;;
16115;SDS011;8162;47.104;15.432;2022-10-16T01:04:26;44.50;;;28.23;;
16115;SDS011;8162;47.104;15.432;2022-10-16T01:15:20;50.23;;;27.83;;
16115;SDS011;8162;47.104;15.432;2022-10-16T01:20:52;40.10;;;29.23;;
16115;SDS011;8162;47.104;15.432;2022-10-16T01:28:22;50.43;;;28.73;;
16115;SDS011;8162;47.104;15.432;2022-10-16T01:30:52;39.87;;;27.80;;
16115;SDS011;8162;47.104;15.432;2022-10-16T01:33:24;41.97;;;28.90;;
16115;SDS011;8162;47.104;15.432;2022-10-16T01:36:12;39.60;;;29.03;;
16115;SDS011;8162;47.104;15.432;2022-10-16T01:38:41;40.00;;;28.10;;
16115;SDS011;8162;47.104;15.432;2022-10-16T01:41:32;40.47;;;27.77;;
16115;SDS011;8162;47.104;15.432;2022-10-16T01:44:01;44.03;;;28.83;;
16115;SDS011;8162;47.104;15.432;2022-10-16T01:46:33;40.70;;;27.10;;
16115;SDS011;8162;47.104;15.432;2022-10-16T01:49:01;43.53;;;28.40;;
16115;SDS011;8162;47.104;15.432;2022-10-16T01:51:28;42.83;;;28.80;;
16115;SDS011;8162;47.104;15.432;2022-10-16T01:53:55;39.47;;;26.83;;
16115;SDS011;8162;47.104;15.432;2022-10-16T01:56:24;40.97;;;28.13;;
16115;SDS011;8162;47.104;15.432;2022-10-16T01:58:53;37.13;;;25.83;;
16115;SDS011;8162;47.104;15.432;2022-10-16T02:01:26;37.03;;;25.13;;
16115;SDS011;8162;47.104;15.432;2022-10-16T02:03:56;34.90;;;25.63;;
16115;SDS011;8162;47.104;15.432;2022-10-16T02:06:26;38.80;;;24.57;;
16115;SDS011;8162;47.104;15.432;2022-10-16T02:08:52;38.23;;;25.03;;
16115;SDS011;8162;47.104;15.432;2022-10-16T02:11:18;39.73;;;26.57;;
16115;SDS011;8162;47.104;15.432;2022-10-16T02:13:55;37.70;;;25.00;;
16115;SDS011;8162;47.104;15.432;2022-10-16T02:16:42;40.10;;;25.77;;
16115;SDS011;8162;47.104;15.432;2022-10-16T02:19:10;34.13;;;25.03;;
16115;SDS011;8162;47.104;15.432;2022-10-16T02:21:43;33.70;;;25.37;;
16115;SDS011;8162;47.104;15.432;2022-10-16T02:27:17;39.53;;;24.30;;
16115;SDS011;8162;47.104;15.432;2022-10-16T02:29:33;37.47;;;23.33;;
16115;SDS011;8162;47.104;15.432;2022-10-16T02:32:04;36.23;;;24.37;;
16115;SDS011;8162;47.104;15.432;2022-10-16T02:34:32;40.20;;;25.07;;
16115;SDS011;8162;47.104;15.432;2022-10-16T02:36:59;36.90;;;26.13;;
16115;SDS011;8162;47.104;15.432;2022-10-16T02:39:27;37.83;;;25.40;;
16115;SDS011;8162;47.104;15.432;2022-10-16T02:41:54;35.80;;;24.70;;
16115;SDS011;8162;47.104;15.432;2022-10-16T02:44:20;39.30;;;23.47;;
16115;SDS011;8162;47.104;15.432;2022-10-16T02:46:45;34.60;;;23.60;;
16115;SDS011;8162;47.104;15.432;2022-10-16T02:49:11;39.30;;;24.97;;
16115;SDS011;8162;47.104;15.432;2022-10-16T02:51:37;37.07;;;23.30;;
16115;SDS011;8162;47.104;15.432;2022-10-16T02:54:03;38.87;;;24.60;;
16115;SDS011;8162;47.104;15.432;2022-10-16T02:56:29;33.83;;;24.33;;
16115;SDS011;8162;47.104;15.432;2022-10-16T02:58:55;37.10;;;24.17;;
16115;SDS011;8162;47.104;15.432;2022-10-16T03:01:21;38.90;;;24.97;;
16115;SDS011;8162;47.104;15.432;2022-10-16T03:03:46;34.87;;;24.77;;
16115;SDS011;8162;47.104;15.432;2022-10-16T03:06:12;32.93;;;23.27;;
16115;SDS011;8162;47.104;15.432;2022-10-16T03:08:38;37.53;;;24.63;;
16115;SDS011;8162;47.104;15.432;2022-10-16T03:11:04;36.97;;;24.90;;
16115;SDS011;8162;47.104;15.432;2022-10-16T03:13:30;36.13;;;23.43;;
16115;SDS011;8162;47.104;15.432;2022-10-16T03:15:55;34.63;;;23.10;;
16115;SDS011;8162;47.104;15.432;2022-10-16T03:18:21;38.20;;;25.17;;
16115;SDS011;8162;47.104;15.432;2022-10-16T03:20:47;31.03;;;22.50;;
16115;SDS011;8162;47.104;15.432;2022-10-16T03:23:12;33.63;;;23.87;;
16115;SDS011;8162;47.104;15.432;2022-10-16T03:25:38;36.20;;;23.10;;
16115;SDS011;8162;47.104;15.432;2022-10-16T03:28:04;29.37;;;21.60;;
16115;SDS011;8162;47.104;15.432;2022-10-16T03:30:30;31.10;;;21.97;;
16115;SDS011;8162;47.104;15.432;2022-10-16T03:32:56;34.03;;;23.70;;
16115;SDS011;8162;47.104;15.432;2022-10-16T03:35:22;34.33;;;23.07;;
16115;SDS011;8162;47.104;15.432;2022-10-16T03:37:49;35.33;;;24.07;;
16115;SDS011;8162;47.104;15.432;2022-10-16T03:40:15;34.60;;;23.20;;
16115;SDS011;8162;47.104;15.432;2022-10-16T03:42:42;35.47;;;22.03;;
16115;SDS011;8162;47.104;15.432;2022-10-16T03:45:08;35.03;;;22.50;;
16115;SDS011;8162;47.104;15.432;2022-10-16T03:47:34;31.23;;;22.43;;
16115;SDS011;8162;47.104;15.432;2022-10-16T03:50:00;32.57;;;23.33;;
16115;SDS011;8162;47.104;15.432;2022-10-16T03:52:26;36.37;;;23.33;;
16115;SDS011;8162;47.104;15.432;2022-10-16T03:54:52;32.07;;;22.10;;
16115;SDS011;8162;47.104;15.432;2022-10-16T03:57:17;36.03;;;23.93;;
16115;SDS011;8162;47.104;15.432;2022-10-16T03:59:43;34.93;;;22.00;;
16115;SDS011;8162;47.104;15.432;2022-10-16T04:02:09;31.23;;;22.93;;
16115;SDS011;8162;47.104;15.432;2022-10-16T04:04:34;31.77;;;22.33;;
16115;SDS011;8162;47.104;15.432;2022-10-16T04:07:00;31.27;;;23.07;;
16115;SDS011;8162;47.104;15.432;2022-10-16T04:09:26;33.90;;;22.83;;
16115;SDS011;8162;47.104;15.432;2022-10-16T04:11:52;34.07;;;22.90;;
16115;SDS011;8162;47.104;15.432;2022-10-16T04:14:17;36.90;;;23.47;;
16115;SDS011;8162;47.104;15.432;2022-10-16T04:16:43;32.30;;;22.47;;
16115;SDS011;8162;47.104;15.432;2022-10-16T04:19:10;31.10;;;22.67;;
16115;SDS011;8162;47.104;15.432;2022-10-16T04:21:36;32.40;;;22.13;;
16115;SDS011;8162;47.104;15.432;2022-10-16T04:24:01;31.20;;;22.63;;
16115;SDS011;8162;47.104;15.432;2022-10-16T04:26:27;32.30;;;22.23;;
16115;SDS011;8162;47.104;15.432;2022-10-16T04:28:53;33.37;;;22.00;;
16115;SDS011;8162;47.104;15.432;2022-10-16T04:31:19;31.50;;;22.57;;
16115;SDS011;8162;47.104;15.432;2022-10-16T04:33:45;32.90;;;22.63;;
16115;SDS011;8162;47.104;15.432;2022-10-16T04:36:11;32.23;;;21.47;;
16115;SDS011;8162;47.104;15.432;2022-10-16T04:38:38;28.90;;;20.57;;
16115;SDS011;8162;47.104;15.432;2022-10-16T04:41:04;37.17;;;22.53;;
16115;SDS011;8162;47.104;15.432;2022-10-16T04:43:31;29.67;;;21.57;;
16115;SDS011;8162;47.104;15.432;2022-10-16T04:45:56;33.90;;;20.90;;
16115;SDS011;8162;47.104;15.432;2022-10-16T04:48:22;35.07;;;21.93;;
16115;SDS011;8162;47.104;15.432;2022-10-16T04:50:48;32.33;;;22.23;;
16115;SDS011;8162;47.104;15.432;2022-10-16T04:53:14;34.63;;;22.43;;
16115;SDS011;8162;47.104;15.432;2022-10-16T04:55:40;33.83;;;21.80;;
16115;SDS011;8162;47.104;15.432;2022-10-16T04:58:06;33.17;;;22.10;;
16115;SDS011;8162;47.104;15.432;2022-10-16T05:00:32;30.27;;;19.90;;
16115;SDS011;8162;47.104;15.432;2022-10-16T05:02:59;29.77;;;21.13;;
16115;SDS011;8162;47.104;15.432;2022-10-16T05:05:25;33.50;;;21.27;;
16115;SDS011;8162;47.104;15.432;2022-10-16T05:07:52;31.73;;;21.97;;
16115;SDS011;8162;47.104;15.432;2022-10-16T05:10:17;34.03;;;21.03;;
16115;SDS011;8162;47.104;15.432;2022-10-16T05:12:44;38.73;;;21.93;;
16115;SDS011;8162;47.104;15.432;2022-10-16T05:15:10;31.20;;;20.57;;
16115;SDS011;8162;47.104;15.432;2022-10-16T05:17:35;31.70;;;21.27;;
16115;SDS011;8162;47.104;15.432;2022-10-16T05:20:01;35.40;;;22.37;;
16115;SDS011;8162;47.104;15.432;2022-10-16T05:22:28;33.50;;;21.60;;
16115;SDS011;8162;47.104;15.432;2022-10-16T05:24:54;31.13;;;22.13;;
16115;SDS011;8162;47.104;15.432;2022-10-16T05:27:19;31.03;;;22.17;;
16115;SDS011;8162;47.104;15.432;2022-10-16T05:29:45;34.03;;;22.07;;
16115;SDS011;8162;47.104;15.432;2022-10-16T05:32:13;31.10;;;21.20;;
16115;SDS011;8162;47.104;15.432;2022-10-16T05:34:39;31.60;;;21.70;;
16115;SDS011;8162;47.104;15.432;2022-10-16T05:37:05;34.47;;;22.53;;
16115;SDS011;8162;47.104;15.432;2022-10-16T05:39:31;34.10;;;21.90;;
16115;SDS011;8162;47.104;15.432;2022-10-16T05:41:56;35.23;;;23.10;;
16115;SDS011;8162;47.104;15.432;2022-10-16T05:44:22;34.43;;;22.47;;
16115;SDS011;8162;47.104;15.432;2022-10-16T05:46:48;31.57;;;21.57;;
16115;SDS011;8162;47.104;15.432;2022-10-16T05:49:14;31.03;;;20.63;;
16115;SDS011;8162;47.104;15.432;2022-10-16T05:51:39;32.00;;;20.23;;
16115;SDS011;8162;47.104;15.432;2022-10-16T05:54:06;35.80;;;20.47;;
16115;SDS011;8162;47.104;15.432;2022-10-16T05:56:32;35.07;;;21.60;;
16115;SDS011;8162;47.104;15.432;2022-10-16T05:58:57;31.73;;;22.27;;
16115;SDS011;8162;47.104;15.432;2022-10-16T06:01:23;35.10;;;21.23;;
16115;SDS011;8162;47.104;15.432;2022-10-16T06:03:52;27.47;;;20.37;;
16115;SDS011;8162;47.104;15.432;2022-10-16T06:06:19;30.67;;;21.57;;
16115;SDS011;8162;47.104;15.432;2022-10-16T06:08:46;34.83;;;22.50;;
16115;SDS011;8162;47.104;15.432;2022-10-16T06:11:17;38.00;;;24.67;;
16115;SDS011;8162;47.104;15.432;2022-10-16T06:13:44;36.77;;;25.73;;
16115;SDS011;8162;47.104;15.432;2022-10-16T06:16:11;41.10;;;27.30;;
16115;SDS011;8162;47.104;15.432;2022-10-16T06:18:37;37.70;;;26.33;;
16115;SDS011;8162;47.104;15.432;2022-10-16T06:21:08;35.50;;;24.23;;
16115;SDS011;8162;47.104;15.432;2022-10-16T06:23:35;36.03;;;24.63;;
16115;SDS011;8162;47.104;15.432;2022-10-16T06:26:07;33.17;;;23.83;;
16115;SDS011;8162;47.104;15.432;2022-10-16T06:28:37;33.50;;;22.30;;
16115;SDS011;8162;47.104;15.432;2022-10-16T06:31:04;31.63;;;22.27;;
16115;SDS011;8162;47.104;15.432;2022-10-16T06:33:31;32.03;;;23.23;;
16115;SDS011;8162;47.104;15.432;2022-10-16T06:36:03;31.40;;;21.87;;
16115;SDS011;8162;47.104;15.432;2022-10-16T06:38:31;32.30;;;22.77;;
16115;SDS011;8162;47.104;15.432;2022-10-16T06:40:57;32.43;;;23.37;;
16115;SDS011;8162;47.104;15.432;2022-10-16T06:43:26;33.00;;;22.07;;
16115;SDS011;8162;47.104;15.432;2022-10-16T06:46:06;29.33;;;20.03;;
16115;SDS011;8162;47.104;15.432;2022-10-16T06:48:39;29.10;;;20.63;;
16115;SDS011;8162;47.104;15.432;2022-10-16T06:51:05;27.87;;;19.87;;
16115;SDS011;8162;47.104;15.432;2022-10-16T06:53:43;31.53;;;20.77;;
16115;SDS011;8162;47.104;15.432;2022-10-16T06:56:13;32.00;;;21.47;;
16115;SDS011;8162;47.104;15.432;2022-10-16T06:58:40;29.40;;;20.57;;
16115;SDS011;8162;47.104;15.432;2022-10-16T07:01:07;32.67;;;22.93;;
16115;SDS011;8162;47.104;15.432;2022-10-16T07:03:33;29.80;;;22.40;;
16115;SDS011;8162;47.104;15.432;2022-10-16T07:06:03;32.30;;;22.30;;
16115;SDS011;8162;47.104;15.432;2022-10-16T07:08:33;30.90;;;21.53;;
16115;SDS011;8162;47.104;15.432;2022-10-16T07:11:04;35.23;;;22.10;;
16115;SDS011;8162;47.104;15.432;2022-10-16T07:13:38;30.90;;;21.77;;
16115;SDS011;8162;47.104;15.432;2022-10-16T07:16:05;31.10;;;21.53;;
16115;SDS011;8162;47.104;15.432;2022-10-16T07:18:39;30.00;;;21.80;;
16115;SDS011;8162;47.104;15.432;2022-10-16T07:21:06;37.30;;;21.93;;
16115;SDS011;8162;47.104;15.432;2022-10-16T07:23:33;28.97;;;20.67;;
16115;SDS011;8162;47.104;15.432;2022-10-16T07:25:58;33.23;;;21.23;;
16115;SDS011;8162;47.104;15.432;2022-10-16T07:28:24;33.60;;;21.23;;
16115;SDS011;8162;47.104;15.432;2022-10-16T07:30:50;34.70;;;21.00;;
16115;SDS011;8162;47.104;15.432;2022-10-16T07:33:15;31.40;;;20.43;;
16115;SDS011;8162;47.104;15.432;2022-10-16T07:35:51;33.20;;;20.83;;
16115;SDS011;8162;47.104;15.432;2022-10-16T07:38:18;28.50;;;21.17;;
16115;SDS011;8162;47.104;15.432;2022-10-16T07:40:44;28.53;;;20.57;;
16115;SDS011;8162;47.104;15.432;2022-10-16T07:43:10;30.83;;;21.23;;
16115;SDS011;8162;47.104;15.432;2022-10-16T07:45:36;33.23;;;20.47;;
16115;SDS011;8162;47.104;15.432;2022-10-16T07:48:02;32.43;;;22.00;;
16115;SDS011;8162;47.104;15.432;2022-10-16T07:50:28;30.47;;;19.93;;
16115;SDS011;8162;47.104;15.432;2022-10-16T07:52:53;30.80;;;20.63;;
16115;SDS011;8162;47.104;15.432;2022-10-16T07:55:19;30.13;;;21.33;;
16115;SDS011;8162;47.104;15.432;2022-10-16T07:57:45;31.53;;;21.93;;
16115;SDS011;8162;47.104;15.432;2022-10-16T08:00:10;28.10;;;18.77;;
16115;SDS011;8162;47.104;15.432;2022-10-16T08:02:40;32.37;;;20.53;;
16115;SDS011;8162;47.104;15.432;2022-10-16T08:05:06;31.57;;;20.83;;
16115;SDS011;8162;47.104;15.432;2022-10-16T08:07:32;31.37;;;21.00;;
16115;SDS011;8162;47.104;15.432;2022-10-16T08:09:57;29.87;;;19.57;;
16115;SDS011;8162;47.104;15.432;2022-10-16T08:12:25;30.60;;;19.97;;
16115;SDS011;8162;47.104;15.432;2022-10-16T08:14:51;30.70;;;20.63;;
16115;SDS011;8162;47.104;15.432;2022-10-16T08:17:17;28.83;;;20.07;;
16115;SDS011;8162;47.104;15.432;2022-10-16T08:19:46;27.43;;;19.43;;
16115;SDS011;8162;47.104;15.432;2022-10-16T08:22:12;30.37;;;20.03;;
16115;SDS011;8162;47.104;15.432;2022-10-16T08:24:39;32.40;;;21.10;;
16115;SDS011;8162;47.104;15.432;2022-10-16T08:27:05;31.47;;;20.20;;
16115;SDS011;8162;47.104;15.432;2022-10-16T08:29:32;31.43;;;20.67;;
16115;SDS011;8162;47.104;15.432;2022-10-16T08:31:58;28.13;;;19.63;;
16115;SDS011;8162;47.104;15.432;2022-10-16T08:34:23;33.30;;;21.50;;
16115;SDS011;8162;47.104;15.432;2022-10-16T08:36:49;27.13;;;20.40;;
16115;SDS011;8162;47.104;15.432;2022-10-16T08:39:17;29.40;;;20.03;;
16115;SDS011;8162;47.104;15.432;2022-10-16T08:49:52;30.37;;;21.20;;
16115;SDS011;8162;47.104;15.432;2022-10-16T08:52:27;34.57;;;22.83;;
16115;SDS011;8162;47.104;15.432;2022-10-16T08:54:57;30.70;;;22.87;;
16115;SDS011;8162;47.104;15.432;2022-10-16T08:57:24;34.13;;;23.30;;
16115;SDS011;8162;47.104;15.432;2022-10-16T08:59:53;31.57;;;22.93;;
16115;SDS011;8162;47.104;15.432;2022-10-16T09:02:32;30.37;;;21.03;;
16115;SDS011;8162;47.104;15.432;2022-10-16T09:07:48;32.67;;;25.37;;
16115;SDS011;8162;47.104;15.432;2022-10-16T09:10:30;31.23;;;23.60;;
16115;SDS011;8162;47.104;15.432;2022-10-16T09:13:02;32.20;;;23.77;;
16115;SDS011;8162;47.104;15.432;2022-10-16T09:18:50;32.67;;;23.50;;
16115;SDS011;8162;47.104;15.432;2022-10-16T09:21:31;28.23;;;22.23;;
16115;SDS011;8162;47.104;15.432;2022-10-16T09:24:07;30.90;;;21.17;;
16115;SDS011;8162;47.104;15.432;2022-10-16T09:26:43;30.73;;;24.10;;
16115;SDS011;8162;47.104;15.432;2022-10-16T09:29:16;30.93;;;23.70;;
16115;SDS011;8162;47.104;15.432;2022-10-16T09:31:50;33.57;;;24.27;;
16115;SDS011;8162;47.104;15.432;2022-10-16T09:34:29;31.70;;;23.43;;
16115;SDS011;8162;47.104;15.432;2022-10-16T09:36:58;30.33;;;23.77;;
16115;SDS011;8162;47.104;15.432;2022-10-16T09:39:28;28.07;;;23.40;;
16115;SDS011;8162;47.104;15.432;2022-10-16T09:41:53;26.53;;;21.33;;
16115;SDS011;8162;47.104;15.432;2022-10-16T09:44:23;31.17;;;23.77;;
16115;SDS011;8162;47.104;15.432;2022-10-16T09:47:02;32.23;;;22.83;;
16115;SDS011;8162;47.104;15.432;2022-10-16T09:49:55;33.10;;;23.13;;
16115;SDS011;8162;47.104;15.432;2022-10-16T09:52:22;29.80;;;22.43;;
16115;SDS011;8162;47.104;15.432;2022-10-16T09:54:49;28.37;;;21.87;;
16115;SDS011;8162;47.104;15.432;2022-10-16T09:57:19;29.97;;;23.07;;
16115;SDS011;8162;47.104;15.432;2022-10-16T09:59:47;28.03;;;21.83;;
16115;SDS011;8162;47.104;15.432;2022-10-16T10:02:17;27.83;;;22.23;;
16115;SDS011;8162;47.104;15.432;2022-10-16T10:04:53;27.47;;;22.60;;
16115;SDS011;8162;47.104;15.432;2022-10-16T10:07:32;29.97;;;23.17;;
16115;SDS011;8162;47.104;15.432;2022-10-16T10:10:03;29.00;;;22.43;;
16115;SDS011;8162;47.104;15.432;2022-10-16T10:12:30;28.13;;;22.93;;
16115;SDS011;8162;47.104;15.432;2022-10-16T10:15:02;28.63;;;22.90;;
16115;SDS011;8162;47.104;15.432;2022-10-16T10:17:31;27.87;;;21.47;;
16115;SDS011;8162;47.104;15.432;2022-10-16T10:30:27;24.77;;;19.70;;
16115;SDS011;8162;47.104;15.432;2022-10-16T10:38:24;25.27;;;19.37;;
16115;SDS011;8162;47.104;15.432;2022-10-16T10:41:12;23.67;;;18.87;;
16115;SDS011;8162;47.104;15.432;2022-10-16T10:43:50;22.80;;;19.10;;
16115;SDS011;8162;47.104;15.432;2022-10-16T10:46:42;22.17;;;18.60;;
16115;SDS011;8162;47.104;15.432;2022-10-16T10:49:19;23.67;;;19.70;;
16115;SDS011;8162;47.104;15.432;2022-10-16T10:57:32;22.17;;;18.07;;
16115;SDS011;8162;47.104;15.432;2022-10-16T11:05:52;20.87;;;17.53;;
16115;SDS011;8162;47.104;15.432;2022-10-16T11:08:27;20.27;;;17.17;;
16115;SDS011;8162;47.104;15.432;2022-10-16T11:11:00;22.80;;;17.27;;
16115;SDS011;8162;47.104;15.432;2022-10-16T11:16:39;19.77;;;16.30;;
16115;SDS011;8162;47.104;15.432;2022-10-16T11:22:15;24.20;;;16.73;;
16115;SDS011;8162;47.104;15.432;2022-10-16T11:27:45;20.83;;;17.03;;
16115;SDS011;8162;47.104;15.432;2022-10-16T11:30:21;21.97;;;17.17;;
16115;SDS011;8162;47.104;15.432;2022-10-16T11:33:39;19.47;;;16.37;;
16115;SDS011;8162;47.104;15.432;2022-10-16T11:36:00;20.57;;;15.87;;
16115;SDS011;8162;47.104;15.432;2022-10-16T11:41:47;23.20;;;17.93;;
16115;SDS011;8162;47.104;15.432;2022-10-16T11:44:35;21.10;;;17.63;;
16115;SDS011;8162;47.104;15.432;2022-10-16T11:49:50;19.73;;;16.73;;
16115;SDS011;8162;47.104;15.432;2022-10-16T11:52:48;18.77;;;16.37;;
16115;SDS011;8162;47.104;15.432;2022-10-16T11:55:41;18.40;;;15.63;;
16115;SDS011;8162;47.104;15.432;2022-10-16T11:58:14;20.53;;;17.43;;
16115;SDS011;8162;47.104;15.432;2022-10-16T12:01:01;20.07;;;17.23;;
16115;SDS011;8162;47.104;15.432;2022-10-16T12:03:56;17.60;;;15.67;;
16115;SDS011;8162;47.104;15.432;2022-10-16T12:06:30;19.53;;;15.73;;
16115;SDS011;8162;47.104;15.432;2022-10-16T12:09:02;20.27;;;16.33;;
16115;SDS011;8162;47.104;15.432;2022-10-16T12:14:04;20.83;;;15.13;;
16115;SDS011;8162;47.104;15.432;2022-10-16T12:16:30;16.40;;;14.60;;
16115;SDS011;8162;47.104;15.432;2022-10-16T12:19:17;16.70;;;14.63;;
16115;SDS011;8162;47.104;15.432;2022-10-16T12:21:43;17.63;;;14.07;;
16115;SDS011;8162;47.104;15.432;2022-10-16T12:26:57;18.73;;;14.93;;
16115;SDS011;8162;47.104;15.432;2022-10-16T12:29:28;17.13;;;15.33;;
16115;SDS011;8162;47.104;15.432;2022-10-16T12:31:58;18.17;;;14.20;;
16115;SDS011;8162;47.104;15.432;2022-10-16T12:34:29;17.23;;;14.20;;
16115;SDS011;8162;47.104;15.432;2022-10-16T12:37:13;15.10;;;13.50;;
16115;SDS011;8162;47.104;15.432;2022-10-16T12:39:49;16.53;;;14.10;;
16115;SDS011;8162;47.104;15.432;2022-10-16T12:42:21;16.37;;;13.63;;
16115;SDS011;8162;47.104;15.432;2022-10-16T12:44:54;16.27;;;12.97;;
16115;SDS011;8162;47.104;15.432;2022-10-16T12:49:55;17.87;;;13.67;;
16115;SDS011;8162;47.104;15.432;2022-10-16T12:54:59;16.00;;;13.63;;
16115;SDS011;8162;47.104;15.432;2022-10-16T13:03:11;15.60;;;13.10;;
16115;SDS011;8162;47.104;15.432;2022-10-16T13:30:50;14.37;;;12.97;;
16115;SDS011;8162;47.104;15.432;2022-10-16T13:33:19;14.33;;;12.93;;
16115;SDS011;8162;47.104;15.432;2022-10-16T13:35:53;14.77;;;12.43;;
16115;SDS011;8162;47.104;15.432;2022-10-16T13:38:20;14.50;;;13.10;;
16115;SDS011;8162;47.104;15.432;2022-10-16T13:40:58;14.90;;;13.47;;
16115;SDS011;8162;47.104;15.432;2022-10-16T13:46:18;14.63;;;13.07;;
16115;SDS011;8162;47.104;15.432;2022-10-16T13:48:55;14.17;;;12.87;;
16115;SDS011;8162;47.104;15.432;2022-10-16T13:51:22;14.33;;;12.77;;
16115;SDS011;8162;47.104;15.432;2022-10-16T13:53:48;15.47;;;12.93;;
16115;SDS011;8162;47.104;15.432;2022-10-16T13:56:15;13.83;;;12.43;;
16115;SDS011;8162;47.104;15.432;2022-10-16T13:58:42;15.57;;;13.33;;
16115;SDS011;8162;47.104;15.432;2022-10-16T14:01:16;14.23;;;12.43;;
16115;SDS011;8162;47.104;15.432;2022-10-16T14:03:50;14.17;;;12.77;;
16115;SDS011;8162;47.104;15.432;2022-10-16T14:06:17;13.83;;;12.40;;
16115;SDS011;8162;47.104;15.432;2022-10-16T14:08:52;15.13;;;13.13;;
16115;SDS011;8162;47.104;15.432;2022-10-16T14:11:44;14.33;;;12.83;;
16115;SDS011;8162;47.104;15.432;2022-10-16T14:14:13;17.47;;;12.43;;
16115;SDS011;8162;47.104;15.432;2022-10-16T14:16:40;17.53;;;13.60;;
16115;SDS011;8162;47.104;15.432;2022-10-16T14:19:13;15.80;;;13.03;;
16115;SDS011;8162;47.104;15.432;2022-10-16T14:21:50;16.67;;;13.47;;
16115;SDS011;8162;47.104;15.432;2022-10-16T14:24:27;14.30;;;12.47;;
16115;SDS011;8162;47.104;15.432;2022-10-16T14:26:58;15.77;;;14.07;;
16115;SDS011;8162;47.104;15.432;2022-10-16T14:29:24;14.43;;;12.97;;
16115;SDS011;8162;47.104;15.432;2022-10-16T14:34:23;14.93;;;13.40;;
16115;SDS011;8162;47.104;15.432;2022-10-16T14:36:49;16.50;;;13.57;;
16115;SDS011;8162;47.104;15.432;2022-10-16T14:39:19;15.57;;;13.70;;
16115;SDS011;8162;47.104;15.432;2022-10-16T14:41:48;16.30;;;12.83;;
16115;SDS011;8162;47.104;15.432;2022-10-16T14:44:19;15.30;;;12.73;;
16115;SDS011;8162;47.104;15.432;2022-10-16T14:46:50;18.33;;;13.73;;
16115;SDS011;8162;47.104;15.432;2022-10-16T14:49:17;17.60;;;13.90;;
16115;SDS011;8162;47.104;15.432;2022-10-16T14:51:45;15.87;;;14.00;;
16115;SDS011;8162;47.104;15.432;2022-10-16T14:54:12;15.67;;;13.60;;
16115;SDS011;8162;47.104;15.432;2022-10-16T14:56:46;15.70;;;14.00;;
16115;SDS011;8162;47.104;15.432;2022-10-16T14:59:16;17.83;;;13.47;;
16115;SDS011;8162;47.104;15.432;2022-10-16T15:01:52;15.80;;;13.70;;
16115;SDS011;8162;47.104;15.432;2022-10-16T15:04:18;19.27;;;14.30;;
16115;SDS011;8162;47.104;15.432;2022-10-16T15:06:44;15.77;;;13.10;;
16115;SDS011;8162;47.104;15.432;2022-10-16T15:09:09;19.10;;;14.63;;
16115;SDS011;8162;47.104;15.432;2022-10-16T15:11:35;18.50;;;14.63;;
16115;SDS011;8162;47.104;15.432;2022-10-16T15:14:01;19.07;;;14.47;;
16115;SDS011;8162;47.104;15.432;2022-10-16T15:16:28;17.47;;;15.03;;
16115;SDS011;8162;47.104;15.432;2022-10-16T15:18:54;17.03;;;15.13;;
16115;SDS011;8162;47.104;15.432;2022-10-16T15:21:22;16.93;;;14.90;;
16115;SDS011;8162;47.104;15.432;2022-10-16T15:23:51;18.57;;;15.57;;
16115;SDS011;8162;47.104;15.432;2022-10-16T15:26:16;18.73;;;15.80;;
16115;SDS011;8162;47.104;15.432;2022-10-16T15:28:42;21.07;;;15.63;;
16115;SDS011;8162;47.104;15.432;2022-10-16T15:31:08;18.07;;;15.60;;
16115;SDS011;8162;47.104;15.432;2022-10-16T15:33:33;19.10;;;16.50;;
16115;SDS011;8162;47.104;15.432;2022-10-16T15:36:00;18.97;;;15.30;;
16115;SDS011;8162;47.104;15.432;2022-10-16T15:38:27;18.50;;;15.73;;
16115;SDS011;8162;47.104;15.432;2022-10-16T15:40:54;19.63;;;15.67;;
16115;SDS011;8162;47.104;15.432;2022-10-16T15:43:21;17.70;;;15.10;;
16115;SDS011;8162;47.104;15.432;2022-10-16T15:45:58;18.90;;;16.57;;
16115;SDS011;8162;47.104;15.432;2022-10-16T15:48:29;20.60;;;16.97;;
16115;SDS011;8162;47.104;15.432;2022-10-16T15:50:55;21.77;;;17.30;;
16115;SDS011;8162;47.104;15.432;2022-10-16T15:53:21;24.07;;;17.80;;
16115;SDS011;8162;47.104;15.432;2022-10-16T15:55:47;22.00;;;17.07;;
16115;SDS011;8162;47.104;15.432;2022-10-16T15:58:12;25.03;;;17.20;;
16115;SDS011;8162;47.104;15.432;2022-10-16T16:00:38;23.97;;;18.43;;
16115;SDS011;8162;47.104;15.432;2022-10-16T16:03:04;23.57;;;18.67;;
16115;SDS011;8162;47.104;15.432;2022-10-16T16:05:30;24.57;;;18.17;;
16115;SDS011;8162;47.104;15.432;2022-10-16T16:07:56;27.20;;;19.40;;
16115;SDS011;8162;47.104;15.432;2022-10-16T16:10:22;22.40;;;17.53;;
16115;SDS011;8162;47.104;15.432;2022-10-16T16:12:48;24.37;;;17.70;;
16115;SDS011;8162;47.104;15.432;2022-10-16T16:15:17;22.30;;;18.70;;
16115;SDS011;8162;47.104;15.432;2022-10-16T16:17:44;28.13;;;18.87;;
16115;SDS011;8162;47.104;15.432;2022-10-16T16:20:10;26.47;;;19.30;;
16115;SDS011;8162;47.104;15.432;2022-10-16T16:22:36;24.57;;;18.60;;
16115;SDS011;8162;47.104;15.432;2022-10-16T16:25:02;24.77;;;20.53;;
16115;SDS011;8162;47.104;15.432;2022-10-16T16:27:28;28.70;;;19.17;;
16115;SDS011;8162;47.104;15.432;2022-10-16T16:29:54;28.67;;;19.33;;
16115;SDS011;8162;47.104;15.432;2022-10-16T16:32:21;25.27;;;18.27;;
16115;SDS011;8162;47.104;15.432;2022-10-16T16:34:46;26.03;;;19.17;;
16115;SDS011;8162;47.104;15.432;2022-10-16T16:37:12;26.77;;;18.77;;